Nearby METAR Reports

 

KILG - Wilmington, Delaware, USA
Distance from station: WNW 5mi, 8km
Updated: Sat, 23-Mar-2019 7:51am EDT
Clear
Clear
 Wind from WNW
Wind: WNW 16 mph , 26 km/h, Gust: 24 mph , 39 km/h
Temperature: 36°F , 2°C
Wind Chill: 26°F , -3°C
Dew Point: 21°F , -6°C
Humidity: 56%
Barometer: 29.93 inHg , 1013.5 hPa
Clouds: Clear
Visibility: 10 miles , 16 km
2019/03/23 11:51 KILG 231151Z 30014G21KT 10SM CLR 02/M06 A2993 RMK AO2 PK WND 29027/1105 SLP135 T00171056 10022 20011 53037 $
KPHL - Philadelphia, Pennsylvania, USA
Distance from station: NE 21mi, 35km
Updated: Sat, 23-Mar-2019 7:54am EDT
Mostly cloudy
Mostly cloudy
 Wind from WNW
Wind: WNW 13 mph , 20 km/h, Gust: 22 mph , 35 km/h
Temperature: 37°F , 3°C
Wind Chill: 29°F , -2°C
Dew Point: 21°F , -6°C
Humidity: 52%
Barometer: 29.90 inHg , 1012.5 hPa
Clouds: Mostly cloudy
Visibility: 10 miles , 16 km
Cloud details: Few Clouds 4500 ft
Partly cloudy 14000 ft
Mostly cloudy 25000 ft
2019/03/23 11:54 KPHL 231154Z 29011G19KT 10SM FEW045 SCT140 BKN250 03/M06 A2990 RMK AO2 SLP124 70007 T00281061 10033 20022 53035 $
 
KOQN - West Chester, Pennsylvania, USA
Distance from station: N 24mi, 39km
Updated: Sat, 23-Mar-2019 8:15am EDT
Clear
Clear
 Wind from WNW
Wind: WNW 14 mph , 22 km/h, Gust: 23 mph , 37 km/h
Temperature: 34°F , 1°C
Wind Chill: 25°F , -4°C
Dew Point: 23°F , -5°C
Humidity: 65%
Barometer: 29.89 inHg , 1012.2 hPa
Clouds: Clear
Visibility: 10 miles , 16 km
2019/03/23 12:15 KOQN 231215Z AUTO 29012G20KT 10SM CLR 01/M05 A2989 RMK AO2
KMIV - Millville, New Jersey, USA
Distance from station: SE 30mi, 48km
Updated: Sat, 23-Mar-2019 7:54am EDT
Clear
Clear
 Wind from WNW
Wind: WNW 17 mph , 28 km/h
Temperature: 36°F , 2°C
Wind Chill: 26°F , -3°C
Dew Point: 21°F , -6°C
Humidity: 56%
Barometer: 29.91 inHg , 1012.9 hPa
Clouds: Clear
Visibility: 10 miles , 16 km
2019/03/23 11:54 KMIV 231154Z AUTO 29015KT 10SM CLR 02/M06 A2991 RMK AO2 SLP127 70007 T00171056 10033 20011 53035
 
KMQS - Coatesville, Pennsylvania, USA
Distance from station: NW 30mi, 49km
Updated: Sat, 23-Mar-2019 8:15am EDT
Clear
Clear
 Wind from NW
Wind: NW 17 mph , 28 km/h, Gust: 24 mph , 39 km/h
Temperature: 34°F , 1°C
Wind Chill: 23°F , -5°C
Dew Point: 23°F , -5°C
Humidity: 65%
Barometer: 29.91 inHg , 1012.9 hPa
Clouds: Clear
Visibility: 10 miles , 16 km
2019/03/23 12:15 KMQS 231215Z AUTO 32015G21KT 10SM CLR 01/M05 A2991 RMK AO2
KDOV - Dover Afb, Delaware, USA
Distance from station: S 36mi, 58km
Updated: Sat, 23-Mar-2019 6:56am EDT
NOT Current
Clear
Clear
 Wind from W
Wind: W 20 mph , 31 km/h, Gust: 25 mph , 41 km/h
Temperature: 34°F , 1°C
Wind Chill: 23°F , -5°C
Dew Point: 21°F , -6°C
Humidity: 60%
Barometer: 29.90 inHg , 1012.5 hPa
Clouds: Clear
Visibility: 10 miles , 16 km
2019/03/23 10:56 KDOV 231056Z AUTO 28017G22KT 10SM CLR 01/M06 A2990 RMK AO2 SLP129 T00141057 $
 
KLOM - Philly Wings F, Pennsylvania, USA
Distance from station: NNE 36mi, 59km
Updated: Sat, 23-Mar-2019 8:15am EDT
Clear
Clear
 Wind from NW
Wind: NW 8 mph , 13 km/h, Gust: 18 mph , 30 km/h
Temperature: 34°F , 1°C
Wind Chill: 27°F , -3°C
Dew Point: 23°F , -5°C
Humidity: 65%
Barometer: 29.89 inHg , 1012.2 hPa
Clouds: Clear
Visibility: 10 miles , 16 km
2019/03/23 12:15 KLOM 231215Z AUTO 31007G16KT 280V350 10SM CLR 01/M05 A2989 RMK AO1
KAPG - Aberdeen/Phillip, Maryland, USA
Distance from station: WSW 37mi, 60km
Updated: Fri, 22-Mar-2019 7:50pm EDT
NOT Current
Partly cloudy
Partly cloudy
 Wind from W
Wind: W 14 mph , 22 km/h, Gust: 25 mph , 41 km/h
Temperature: 45°F , 7°C
Wind Chill: 39°F , 4°C
Dew Point: 32°F , 0°C
Humidity: 61%
Barometer: 29.64 inHg , 1003.7 hPa
Clouds: Partly cloudy
Visibility: 7 miles , 11 km
Cloud details: Partly cloudy 4000 ft
2019/03/22 23:50 KAPG 222350Z 28012G22KT 7SM SCT040 07/00 A2964 RMK SLPNO $
 
KPNE - Philadelphia/Ne, Pennsylvania, USA
Distance from station: NE 40mi, 65km
Updated: Sat, 23-Mar-2019 7:54am EDT
Clear
Clear
 Wind from WNW
Wind: WNW 18 mph , 30 km/h, Gust: 29 mph , 46 km/h
Temperature: 37°F , 3°C
Wind Chill: 27°F , -3°C
Dew Point: 21°F , -6°C
Humidity: 52%
Barometer: 29.86 inHg , 1011.2 hPa
Clouds: Clear
Visibility: 10 miles , 16 km
2019/03/23 11:54 KPNE 231154Z 29016G25KT 10SM CLR 03/M06 A2986 RMK AO2 PK WND 32026/1057 SLP113 70004 T00281061 10039 20022 51034
KPTW - Pottstown, Pennsylvania, USA
Distance from station: N 41mi, 66km
Updated: Sat, 23-Mar-2019 7:54am EDT
Clear
Clear
 Wind from NW
Wind: NW 12 mph , 19 km/h, Gust: 28 mph , 44 km/h
Temperature: 34°F , 1°C
Wind Chill: 25°F , -4°C
Dew Point: 21°F , -6°C
Humidity: 60%
Barometer: 29.88 inHg , 1011.9 hPa
Clouds: Clear
Visibility: 10 miles , 16 km
2019/03/23 11:54 KPTW 231154Z AUTO 31010G24KT 10SM CLR 01/M06 A2988 RMK AO2 SLP119 70010 T00061061 10011 20000 51031
 
KVAY - Mount Holly, New Jersey, USA
Distance from station: ENE 41mi, 66km
Updated: Sat, 23-Mar-2019 7:54am EDT
Few Clouds
Few Clouds
 Wind from W
Wind: W 16 mph , 26 km/h, Gust: 24 mph , 39 km/h
Temperature: 36°F , 2°C
Wind Chill: 26°F , -3°C
Dew Point: 21°F , -6°C
Humidity: 56%
Barometer: 29.86 inHg , 1011.2 hPa
Clouds: Few Clouds
Visibility: 10 miles , 16 km
Cloud details: Few Clouds 12000 ft
2019/03/23 11:54 KVAY 231154Z AUTO 28014G21KT 10SM FEW120 02/M06 A2986 RMK AO2 PK WND 29026/1137 SLP112 70003 T00221061 10033 20017 53035